Hovedside
METAR-TAF:

METAR-TAF

Lufthavner :

London City lufthavn

London, England

breddegrad: 51-30N, lengdegrad: 000-03E, høyde over havet: 5 m

Gjeldene værobservasjon

Denne rapporten ble laget for 28 minutter siden, klokken 21:20 UTC
Vind 6 kt fra Sør, skiftende mellom Sørøst og Sør-sørvest
Temperatur 14°C
Luftfuktighet 72%
Trykk 999 hPa
Sikt 10 km eller mer

METAR: EGLC 142120Z AUTO 18006KT 140V210 9999 NCD 14/09 Q0999

Tid: 22:48 (21:48 UTC)

Varsel

Denne rapporten ble laget for 4 timer og 51 minutter siden, klokken 16:57 UTC
Varsel gyldig fra 14. klokken 18 UTC til 14. klokken 21 UTC
Vind 9 kt fra Sør-sørvest
Sikt 10 km eller mer
Spredte skyer i en høyde av 3000 ft
Sannsynlighet 30% :
Midlertidig
fra 14. klokken 18 UTC til 14. klokken 21 UTC
Sikt: 7000 m
regnbyger,

TAF: EGLC 141657Z 1418/1421 21009KT 9999 SCT030 PROB30 TEMPO 1418/1421 7000 SHRA

Værobservasjoner og værvarsel for over 4000 flyplasser (METAR- og TAF-rapporter).

Tilgjengelige stasjoner er representert av de røde og gule prikkene på kartet.

Hold musepekeren over prikken for å se navnet på stasjonen.

Klikk så for å se værobservasjoner og -varsler.

For å forandre kartet kan du klikke på den grønne knappen med svart kryss for å zoome inn, på den grønne knappen med strek for å zoome ut, eller på de grønne pilene for å se tilstøtende kart.


METAR-TAF: